| Date | Time | Temp. (oF) | Dew Point (oF) | Rel. Hum. (%) | Press. (in.) | Wind Dir. | Wind Speed (mph) | Hourly Rainfall (in.) |
|
|---|---|---|---|---|---|---|---|---|---|
| 1 | 12/12 | 00:00 | 33 | 26 | 78 | 29.83 | ESE | 1 | 0.00 |
| 2 | 12/11 | 23:00 | 33 | 26 | 76 | 29.87 | ESE | 5 | 0.00 |
| 3 | 12/11 | 22:00 | 32 | 24 | 74 | 29.90 | E | 4 | 0.00 |
| 4 | 12/11 | 21:00 | 32 | 23 | 72 | 29.92 | E | 3 | 0.00 |
| 5 | 12/11 | 20:00 | 32 | 23 | 71 | 29.92 | ESE | 4 | 0.00 |
| 6 | 12/11 | 19:00 | 34 | 23 | 66 | 29.94 | ESE | 4 | 0.00 |
| 7 | 12/11 | 18:00 | 35 | 25 | 67 | 29.93 | ESE | 4 | 0.00 |
| 8 | 12/11 | 17:00 | 36 | 23 | 60 | 29.95 | SSE | 1 | 0.00 |
| 9 | 12/11 | 16:00 | 39 | 23 | 53 | 29.94 | SSE | 1 | 0.00 |
| 10 | 12/11 | 15:00 | 40 | 24 | 53 | 29.93 | WNW | 0 | 0.00 |
| 11 | 12/11 | 14:00 | 41 | 22 | 48 | 29.97 | NW | 4 | 0.00 |
| 12 | 12/11 | 13:00 | 39 | 22 | 52 | 29.99 | S | 7 | 0.00 |
| 13 | 12/11 | 12:00 | 40 | 23 | 51 | 30.01 | S | 5 | 0.00 |
| 14 | 12/11 | 11:00 | 38 | 22 | 54 | 30.04 | SW | 2 | 0.00 |
| 15 | 12/11 | 10:00 | 36 | 24 | 63 | 30.05 | WSW | 3 | 0.00 |
| 16 | 12/11 | 09:00 | 34 | 23 | 64 | 30.04 | S | 4 | 0.00 |
| 17 | 12/11 | 08:00 | 33 | 23 | 69 | 30.03 | SW | 1 | 0.00 |
| 18 | 12/11 | 07:00 | 32 | 22 | 67 | 30.02 | SW | 1 | 0.00 |
| 19 | 12/11 | 06:00 | 32 | 21 | 65 | 30.00 | SSW | 3 | 0.00 |
| 20 | 12/11 | 05:00 | 32 | 22 | 69 | 29.99 | SSE | 2 | 0.00 |
| 21 | 12/11 | 04:00 | 32 | 21 | 65 | 29.98 | S | 4 | 0.00 |
| 22 | 12/11 | 03:00 | 33 | 21 | 62 | 29.98 | SSE | 3 | 0.00 |
| 23 | 12/11 | 02:00 | 32 | 20 | 63 | 29.98 | S | 3 | 0.00 |
| 24 | 12/11 | 01:00 | 32 | 21 | 64 | 29.99 | S | 4 | 0.00 |